sensor_id;sensor_type;location;lat;lon;timestamp;pressure;altitude;pressure_sealevel;temperature;humidity
36234;BME280;43467;50.890;5.982;2023-02-02T00:00:47;100820.22;;;8.24;83.01
36234;BME280;43467;50.890;5.982;2023-02-02T00:03:13;100817.88;;;8.13;83.16
36234;BME280;43467;50.890;5.982;2023-02-02T00:05:44;100826.28;;;8.27;82.77
36234;BME280;43467;50.890;5.982;2023-02-02T00:08:09;100833.19;;;8.33;82.68
36234;BME280;43467;50.890;5.982;2023-02-02T00:10:34;100816.69;;;8.25;83.10
36234;BME280;43467;50.890;5.982;2023-02-02T00:13:00;100829.84;;;8.26;82.72
36234;BME280;43467;50.890;5.982;2023-02-02T00:15:25;100829.59;;;8.35;82.22
36234;BME280;43467;50.890;5.982;2023-02-02T00:17:51;100842.84;;;8.34;82.06
36234;BME280;43467;50.890;5.982;2023-02-02T00:20:16;100828.75;;;8.35;81.78
36234;BME280;43467;50.890;5.982;2023-02-02T00:22:41;100823.44;;;8.36;81.59
36234;BME280;43467;50.890;5.982;2023-02-02T00:25:07;100812.75;;;8.41;82.59
36234;BME280;43467;50.890;5.982;2023-02-02T00:27:33;100825.03;;;8.42;82.34
36234;BME280;43467;50.890;5.982;2023-02-02T00:29:58;100813.88;;;8.32;83.31
36234;BME280;43467;50.890;5.982;2023-02-02T00:32:23;100795.59;;;8.23;83.12
36234;BME280;43467;50.890;5.982;2023-02-02T00:34:49;100814.81;;;8.30;83.82
36234;BME280;43467;50.890;5.982;2023-02-02T00:37:14;100809.66;;;8.24;84.11
36234;BME280;43467;50.890;5.982;2023-02-02T00:39:39;100806.03;;;8.28;83.91
36234;BME280;43467;50.890;5.982;2023-02-02T00:42:05;100813.94;;;8.28;83.68
36234;BME280;43467;50.890;5.982;2023-02-02T00:44:30;100813.00;;;8.32;83.36
36234;BME280;43467;50.890;5.982;2023-02-02T00:47:14;100820.16;;;8.27;83.62
36234;BME280;43467;50.890;5.982;2023-02-02T00:49:41;100807.66;;;8.35;83.73
36234;BME280;43467;50.890;5.982;2023-02-02T00:52:06;100818.41;;;8.26;83.42
36234;BME280;43467;50.890;5.982;2023-02-02T00:54:33;100813.38;;;8.17;84.03
36234;BME280;43467;50.890;5.982;2023-02-02T00:56:58;100796.00;;;8.10;83.89
36234;BME280;43467;50.890;5.982;2023-02-02T00:59:24;100816.13;;;8.12;84.21
36234;BME280;43467;50.890;5.982;2023-02-02T01:01:49;100812.84;;;8.04;84.24
36234;BME280;43467;50.890;5.982;2023-02-02T01:04:14;100805.78;;;8.05;84.19
36234;BME280;43467;50.890;5.982;2023-02-02T01:06:40;100816.13;;;8.12;84.12
36234;BME280;43467;50.890;5.982;2023-02-02T01:09:06;100819.66;;;8.13;84.53
36234;BME280;43467;50.890;5.982;2023-02-02T01:11:31;100824.28;;;8.03;84.26
36234;BME280;43467;50.890;5.982;2023-02-02T01:13:57;100824.09;;;8.11;84.46
36234;BME280;43467;50.890;5.982;2023-02-02T01:16:22;100825.91;;;8.09;84.40
36234;BME280;43467;50.890;5.982;2023-02-02T01:18:49;100809.22;;;8.08;84.28
36234;BME280;43467;50.890;5.982;2023-02-02T01:21:15;100812.09;;;7.99;84.53
36234;BME280;43467;50.890;5.982;2023-02-02T01:23:41;100810.44;;;7.95;84.53
36234;BME280;43467;50.890;5.982;2023-02-02T01:26:08;100816.03;;;8.17;84.12
36234;BME280;43467;50.890;5.982;2023-02-02T01:28:35;100820.44;;;8.16;83.79
36234;BME280;43467;50.890;5.982;2023-02-02T01:31:09;100816.13;;;8.12;83.62
36234;BME280;43467;50.890;5.982;2023-02-02T01:33:35;100816.78;;;8.20;83.45
36234;BME280;43467;50.890;5.982;2023-02-02T01:36:04;100824.69;;;8.22;83.21
36234;BME280;43467;50.890;5.982;2023-02-02T01:38:30;100821.41;;;8.12;83.63
36234;BME280;43467;50.890;5.982;2023-02-02T01:40:57;100823.94;;;8.17;83.56
36234;BME280;43467;50.890;5.982;2023-02-02T01:43:25;100830.06;;;8.19;83.34
36234;BME280;43467;50.890;5.982;2023-02-02T01:45:52;100829.00;;;8.24;82.93
36234;BME280;43467;50.890;5.982;2023-02-02T01:48:21;100834.28;;;8.24;82.88
36234;BME280;43467;50.890;5.982;2023-02-02T01:50:49;100843.97;;;8.24;82.93
36234;BME280;43467;50.890;5.982;2023-02-02T01:53:18;100832.63;;;8.20;82.89
36234;BME280;43467;50.890;5.982;2023-02-02T01:55:45;100830.06;;;8.19;82.95
36234;BME280;43467;50.890;5.982;2023-02-02T01:58:27;100839.66;;;8.20;82.67
36234;BME280;43467;50.890;5.982;2023-02-02T02:00:54;100824.03;;;8.14;82.76
36234;BME280;43467;50.890;5.982;2023-02-02T02:03:23;100837.78;;;8.25;82.72
36234;BME280;43467;50.890;5.982;2023-02-02T02:06:11;100835.94;;;8.28;82.21
36234;BME280;43467;50.890;5.982;2023-02-02T02:08:53;100820.31;;;8.21;82.54
36234;BME280;43467;50.890;5.982;2023-02-02T02:11:21;100829.97;;;8.22;82.49
36234;BME280;43467;50.890;5.982;2023-02-02T02:13:46;100818.63;;;8.18;82.71
36234;BME280;43467;50.890;5.982;2023-02-02T02:16:53;100815.16;;;8.16;82.56
36234;BME280;43467;50.890;5.982;2023-02-02T02:20:14;100822.19;;;8.16;82.74
36234;BME280;43467;50.890;5.982;2023-02-02T02:34:05;100823.94;;;8.17;82.95
36234;BME280;43467;50.890;5.982;2023-02-02T02:37:07;100822.28;;;8.13;82.95
36234;BME280;43467;50.890;5.982;2023-02-02T02:39:51;100826.47;;;8.20;82.71
36234;BME280;43467;50.890;5.982;2023-02-02T02:42:23;100822.72;;;8.28;82.43
36234;BME280;43467;50.890;5.982;2023-02-02T02:44:50;100816.69;;;8.25;82.41
36234;BME280;43467;50.890;5.982;2023-02-02T02:47:17;100824.50;;;8.28;82.42
36234;BME280;43467;50.890;5.982;2023-02-02T02:49:45;100822.66;;;8.33;82.35
36234;BME280;43467;50.890;5.982;2023-02-02T02:52:11;100817.47;;;8.30;82.32
36234;BME280;43467;50.890;5.982;2023-02-02T02:54:40;100818.41;;;8.26;82.04
36234;BME280;43467;50.890;5.982;2023-02-02T02:59:36;100826.47;;;8.20;82.96
36234;BME280;43467;50.890;5.982;2023-02-02T03:02:32;100819.41;;;8.22;82.94
36234;BME280;43467;50.890;5.982;2023-02-02T03:05:21;100823.63;;;8.29;82.67
36234;BME280;43467;50.890;5.982;2023-02-02T03:07:51;100827.66;;;8.44;82.13
36234;BME280;43467;50.890;5.982;2023-02-02T03:10:19;100829.84;;;8.26;82.75
36234;BME280;43467;50.890;5.982;2023-02-02T03:12:48;100837.97;;;8.19;83.07
36234;BME280;43467;50.890;5.982;2023-02-02T03:15:16;100833.63;;;8.16;83.22
36234;BME280;43467;50.890;5.982;2023-02-02T03:17:43;100833.69;;;8.13;83.17
36234;BME280;43467;50.890;5.982;2023-02-02T03:20:10;100830.84;;;8.21;83.31
36234;BME280;43467;50.890;5.982;2023-02-02T03:22:35;100834.19;;;8.29;83.00
36234;BME280;43467;50.890;5.982;2023-02-02T03:25:01;100837.50;;;8.35;82.70
36234;BME280;43467;50.890;5.982;2023-02-02T03:27:27;100829.78;;;8.28;82.63
36234;BME280;43467;50.890;5.982;2023-02-02T03:29:53;100842.94;;;8.31;83.15
36234;BME280;43467;50.890;5.982;2023-02-02T03:32:19;100835.03;;;8.31;83.04
36234;BME280;43467;50.890;5.982;2023-02-02T03:34:44;100841.59;;;8.15;83.65
36234;BME280;43467;50.890;5.982;2023-02-02T03:37:10;100834.56;;;8.14;83.67
36234;BME280;43467;50.890;5.982;2023-02-02T03:39:35;100833.00;;;8.07;83.71
36234;BME280;43467;50.890;5.982;2023-02-02T03:42:00;100843.47;;;8.10;83.84
36234;BME280;43467;50.890;5.982;2023-02-02T03:44:26;100842.38;;;8.18;83.57
36234;BME280;43467;50.890;5.982;2023-02-02T03:46:54;100841.69;;;8.10;83.58
36234;BME280;43467;50.890;5.982;2023-02-02T03:49:20;100842.69;;;8.06;83.75
36234;BME280;43467;50.890;5.982;2023-02-02T03:51:46;100848.50;;;8.19;83.47
36234;BME280;43467;50.890;5.982;2023-02-02T03:54:12;100837.91;;;8.20;83.38
36234;BME280;43467;50.890;5.982;2023-02-02T03:56:38;100849.50;;;8.15;83.42
36234;BME280;43467;50.890;5.982;2023-02-02T03:59:03;100853.84;;;8.16;83.53
36234;BME280;43467;50.890;5.982;2023-02-02T04:01:29;100852.00;;;8.19;83.39
36234;BME280;43467;50.890;5.982;2023-02-02T04:03:56;100845.81;;;8.20;83.40
36234;BME280;43467;50.890;5.982;2023-02-02T04:06:22;100832.06;;;8.08;83.51
36234;BME280;43467;50.890;5.982;2023-02-02T04:08:48;100849.34;;;8.19;83.24
36234;BME280;43467;50.890;5.982;2023-02-02T04:11:14;100858.97;;;8.22;83.23
36234;BME280;43467;50.890;5.982;2023-02-02T04:13:40;100859.72;;;8.27;83.01
36234;BME280;43467;50.890;5.982;2023-02-02T04:16:08;100866.69;;;8.31;82.86
36234;BME280;43467;50.890;5.982;2023-02-02T04:18:34;100865.69;;;8.35;82.52
36234;BME280;43467;50.890;5.982;2023-02-02T04:21:03;100863.88;;;8.37;82.25
36234;BME280;43467;50.890;5.982;2023-02-02T04:23:29;100852.53;;;8.33;82.36
36234;BME280;43467;50.890;5.982;2023-02-02T04:25:56;100850.84;;;8.31;82.87
36234;BME280;43467;50.890;5.982;2023-02-02T04:28:21;100842.38;;;8.18;83.50
36234;BME280;43467;50.890;5.982;2023-02-02T04:30:48;100851.75;;;8.28;83.74
36234;BME280;43467;50.890;5.982;2023-02-02T04:33:14;100856.22;;;8.26;84.17
36234;BME280;43467;50.890;5.982;2023-02-02T04:35:41;100866.03;;;8.20;84.54
36234;BME280;43467;50.890;5.982;2023-02-02T04:38:07;100869.09;;;8.05;85.30
36234;BME280;43467;50.890;5.982;2023-02-02T04:40:32;100863.22;;;7.93;85.46
36234;BME280;43467;50.890;5.982;2023-02-02T04:42:57;100878.75;;;8.04;85.41
36234;BME280;43467;50.890;5.982;2023-02-02T04:45:23;100870.94;;;8.01;85.71
36234;BME280;43467;50.890;5.982;2023-02-02T04:47:49;100871.03;;;7.97;85.83
36234;BME280;43467;50.890;5.982;2023-02-02T04:50:15;100882.50;;;7.95;86.32
36234;BME280;43467;50.890;5.982;2023-02-02T04:52:40;100868.59;;;7.89;86.21
36234;BME280;43467;50.890;5.982;2023-02-02T04:55:06;100873.97;;;7.86;86.44
36234;BME280;43467;50.890;5.982;2023-02-02T04:57:32;100882.38;;;8.00;86.44
36234;BME280;43467;50.890;5.982;2023-02-02T04:59:57;100884.16;;;8.00;86.17
36234;BME280;43467;50.890;5.982;2023-02-02T05:02:22;100880.78;;;7.94;86.31
36234;BME280;43467;50.890;5.982;2023-02-02T05:04:48;100893.72;;;8.04;86.20
36234;BME280;43467;50.890;5.982;2023-02-02T05:07:13;100903.38;;;8.03;86.19
36234;BME280;43467;50.890;5.982;2023-02-02T05:09:38;100903.53;;;7.99;86.50
36234;BME280;43467;50.890;5.982;2023-02-02T05:12:04;100901.78;;;7.98;86.53
36234;BME280;43467;50.890;5.982;2023-02-02T05:14:29;100906.47;;;7.86;87.27
36234;BME280;43467;50.890;5.982;2023-02-02T05:16:55;100910.19;;;7.78;87.76
36234;BME280;43467;50.890;5.982;2023-02-02T05:19:20;100910.97;;;7.81;88.23
36234;BME280;43467;50.890;5.982;2023-02-02T05:21:45;100906.69;;;7.76;88.41
36234;BME280;43467;50.890;5.982;2023-02-02T05:24:13;100893.44;;;7.79;88.61
36234;BME280;43467;50.890;5.982;2023-02-02T05:26:38;100893.38;;;7.82;89.08
36234;BME280;43467;50.890;5.982;2023-02-02T05:29:03;100896.72;;;7.88;88.90
36234;BME280;43467;50.890;5.982;2023-02-02T05:31:31;100891.63;;;7.82;89.20
36234;BME280;43467;50.890;5.982;2023-02-02T05:33:56;100898.41;;;7.91;89.00
36234;BME280;43467;50.890;5.982;2023-02-02T05:36:22;100886.34;;;7.82;89.55
36234;BME280;43467;50.890;5.982;2023-02-02T05:38:47;100882.75;;;7.86;89.82
36234;BME280;43467;50.890;5.982;2023-02-02T05:41:12;100879.44;;;7.77;89.68
36234;BME280;43467;50.890;5.982;2023-02-02T05:43:38;100873.41;;;7.72;90.34
36234;BME280;43467;50.890;5.982;2023-02-02T05:46:03;100871.84;;;7.65;90.73
36234;BME280;43467;50.890;5.982;2023-02-02T05:48:29;100878.06;;;7.61;91.25
36234;BME280;43467;50.890;5.982;2023-02-02T05:51:00;100883.44;;;7.56;91.85
36234;BME280;43467;50.890;5.982;2023-02-02T05:53:28;100891.47;;;7.50;91.72
36234;BME280;43467;50.890;5.982;2023-02-02T05:55:53;100894.97;;;7.52;92.43
36234;BME280;43467;50.890;5.982;2023-02-02T05:58:19;100900.16;;;7.55;92.58
36234;BME280;43467;50.890;5.982;2023-02-02T06:00:44;100883.56;;;7.50;93.01
36234;BME280;43467;50.890;5.982;2023-02-02T06:03:10;100888.78;;;7.53;93.15
36234;BME280;43467;50.890;5.982;2023-02-02T06:05:37;100890.50;;;7.54;93.22
36234;BME280;43467;50.890;5.982;2023-02-02T06:08:02;100880.78;;;7.58;93.02
36234;BME280;43467;50.890;5.982;2023-02-02T06:10:28;100888.75;;;7.55;92.99
36234;BME280;43467;50.890;5.982;2023-02-02T06:12:55;100886.06;;;7.58;92.82
36234;BME280;43467;50.890;5.982;2023-02-02T06:15:21;100895.78;;;7.54;92.55
36234;BME280;43467;50.890;5.982;2023-02-02T06:17:46;100900.22;;;7.54;92.49
36234;BME280;43467;50.890;5.982;2023-02-02T06:20:11;100901.72;;;7.64;92.04
36234;BME280;43467;50.890;5.982;2023-02-02T06:22:37;100900.06;;;7.60;91.66
36234;BME280;43467;50.890;5.982;2023-02-02T06:25:02;100908.84;;;7.59;91.05
36234;BME280;43467;50.890;5.982;2023-02-02T06:27:30;100903.69;;;7.54;91.43
36234;BME280;43467;50.890;5.982;2023-02-02T06:29:55;100917.72;;;7.55;91.41
36234;BME280;43467;50.890;5.982;2023-02-02T06:32:21;100915.16;;;7.53;91.18
36234;BME280;43467;50.890;5.982;2023-02-02T06:34:46;100916.75;;;7.59;90.98
36234;BME280;43467;50.890;5.982;2023-02-02T06:37:11;100916.81;;;7.57;90.66
36234;BME280;43467;50.890;5.982;2023-02-02T06:39:37;100909.03;;;7.51;91.01
36234;BME280;43467;50.890;5.982;2023-02-02T06:42:02;100909.88;;;7.53;91.23
36234;BME280;43467;50.890;5.982;2023-02-02T06:44:28;100907.16;;;7.58;90.83
36234;BME280;43467;50.890;5.982;2023-02-02T06:46:53;100918.66;;;7.54;91.29
36234;BME280;43467;50.890;5.982;2023-02-02T06:49:19;100928.94;;;7.64;91.21
36234;BME280;43467;50.890;5.982;2023-02-02T06:51:46;100921.28;;;7.54;90.94
36234;BME280;43467;50.890;5.982;2023-02-02T06:54:12;100924.66;;;7.59;90.74
36234;BME280;43467;50.890;5.982;2023-02-02T06:56:37;100920.25;;;7.59;90.56
36234;BME280;43467;50.890;5.982;2023-02-02T06:59:03;100925.53;;;7.59;89.99
36234;BME280;43467;50.890;5.982;2023-02-02T07:01:28;100917.56;;;7.62;90.07
36234;BME280;43467;50.890;5.982;2023-02-02T07:03:54;100920.13;;;7.65;89.76
36234;BME280;43467;50.890;5.982;2023-02-02T07:06:22;100916.47;;;7.71;89.64
36234;BME280;43467;50.890;5.982;2023-02-02T07:08:48;100913.91;;;7.68;89.55
36234;BME280;43467;50.890;5.982;2023-02-02T07:11:15;100919.22;;;7.66;89.49
36234;BME280;43467;50.890;5.982;2023-02-02T07:13:41;100873.25;;;7.41;89.97
36234;BME280;43467;50.890;5.982;2023-02-02T07:16:06;100933.44;;;7.59;90.27
36234;BME280;43467;50.890;5.982;2023-02-02T07:18:33;100929.25;;;7.51;90.89
36234;BME280;43467;50.890;5.982;2023-02-02T07:21:01;100941.16;;;7.68;90.81
36234;BME280;43467;50.890;5.982;2023-02-02T07:23:27;100943.91;;;7.62;90.87
36234;BME280;43467;50.890;5.982;2023-02-02T07:26:07;100940.44;;;7.60;91.34
36234;BME280;43467;50.890;5.982;2023-02-02T07:28:34;100937.88;;;7.57;91.29
36234;BME280;43467;50.890;5.982;2023-02-02T07:30:59;100933.81;;;7.42;91.75
36234;BME280;43467;50.890;5.982;2023-02-02T07:33:25;100949.31;;;7.56;91.97
36234;BME280;43467;50.890;5.982;2023-02-02T07:35:50;100950.97;;;7.62;91.36
36234;BME280;43467;50.890;5.982;2023-02-02T07:38:16;100953.75;;;7.54;91.40
36234;BME280;43467;50.890;5.982;2023-02-02T07:40:42;100958.19;;;7.54;91.58
36234;BME280;43467;50.890;5.982;2023-02-02T07:43:08;100953.81;;;7.51;91.75
36234;BME280;43467;50.890;5.982;2023-02-02T07:45:33;100950.22;;;7.55;92.01
36234;BME280;43467;50.890;5.982;2023-02-02T07:48:00;100958.03;;;7.60;91.66
36234;BME280;43467;50.890;5.982;2023-02-02T07:50:27;100940.66;;;7.51;91.96
36234;BME280;43467;50.890;5.982;2023-02-02T07:52:53;100944.03;;;7.58;91.78
36234;BME280;43467;50.890;5.982;2023-02-02T07:55:19;100943.00;;;7.63;91.93
36234;BME280;43467;50.890;5.982;2023-02-02T07:57:44;100940.56;;;7.56;91.89
36234;BME280;43467;50.890;5.982;2023-02-02T08:00:10;100941.41;;;7.56;92.45
36234;BME280;43467;50.890;5.982;2023-02-02T08:02:36;100948.59;;;7.50;92.49
36234;BME280;43467;50.890;5.982;2023-02-02T08:05:01;100947.78;;;7.46;92.89
36234;BME280;43467;50.890;5.982;2023-02-02T08:07:27;100945.22;;;7.43;92.88
36234;BME280;43467;50.890;5.982;2023-02-02T08:09:52;100947.69;;;7.51;92.83
36234;BME280;43467;50.890;5.982;2023-02-02T08:12:18;100945.91;;;7.51;92.80
36234;BME280;43467;50.890;5.982;2023-02-02T08:14:47;100953.75;;;7.54;92.28
36234;BME280;43467;50.890;5.982;2023-02-02T08:17:13;100959.88;;;7.55;92.48
36234;BME280;43467;50.890;5.982;2023-02-02T08:19:38;100965.22;;;7.52;92.83
36234;BME280;43467;50.890;5.982;2023-02-02T08:22:04;100966.09;;;7.52;92.64
36234;BME280;43467;50.890;5.982;2023-02-02T08:24:29;100964.56;;;7.42;92.80
36234;BME280;43467;50.890;5.982;2023-02-02T08:26:54;100971.72;;;7.35;93.27
36234;BME280;43467;50.890;5.982;2023-02-02T08:29:20;100977.72;;;7.42;93.02
36234;BME280;43467;50.890;5.982;2023-02-02T08:31:45;100981.22;;;7.44;92.91
36234;BME280;43467;50.890;5.982;2023-02-02T08:34:11;100982.91;;;7.46;93.08
36234;BME280;43467;50.890;5.982;2023-02-02T08:36:38;100992.38;;;7.55;92.52
36234;BME280;43467;50.890;5.982;2023-02-02T08:39:06;100989.94;;;7.46;92.86
36234;BME280;43467;50.890;5.982;2023-02-02T08:41:33;100995.91;;;7.54;93.15
36234;BME280;43467;50.890;5.982;2023-02-02T08:44:04;101002.09;;;7.53;93.67
36234;BME280;43467;50.890;5.982;2023-02-02T08:46:29;101008.38;;;7.46;93.92
36234;BME280;43467;50.890;5.982;2023-02-02T08:48:55;100997.88;;;7.44;93.99
36234;BME280;43467;50.890;5.982;2023-02-02T08:51:20;100998.00;;;7.38;94.27
36234;BME280;43467;50.890;5.982;2023-02-02T08:53:46;101001.19;;;7.54;94.14
36234;BME280;43467;50.890;5.982;2023-02-02T08:56:14;100994.31;;;7.47;94.21
36234;BME280;43467;50.890;5.982;2023-02-02T08:58:44;101000.53;;;7.44;94.27
36234;BME280;43467;50.890;5.982;2023-02-02T09:01:22;100995.97;;;7.51;94.08
36234;BME280;43467;50.890;5.982;2023-02-02T09:03:52;101006.34;;;7.60;93.72
36234;BME280;43467;50.890;5.982;2023-02-02T09:06:18;101015.28;;;7.52;93.85
36234;BME280;43467;50.890;5.982;2023-02-02T09:08:45;101020.53;;;7.53;93.90
36234;BME280;43467;50.890;5.982;2023-02-02T09:11:13;100996.88;;;7.50;93.56
36234;BME280;43467;50.890;5.982;2023-02-02T09:13:40;101023.03;;;7.61;93.31
36234;BME280;43467;50.890;5.982;2023-02-02T09:16:09;101037.19;;;7.55;93.78
36234;BME280;43467;50.890;5.982;2023-02-02T09:18:35;101047.47;;;7.67;93.54
36234;BME280;43467;50.890;5.982;2023-02-02T09:21:02;101044.00;;;7.65;93.48
36234;BME280;43467;50.890;5.982;2023-02-02T09:23:29;101060.63;;;7.69;93.08
36234;BME280;43467;50.890;5.982;2023-02-02T09:25:55;101058.16;;;7.61;93.56
36234;BME280;43467;50.890;5.982;2023-02-02T09:28:20;101055.63;;;7.55;93.85
36234;BME280;43467;50.890;5.982;2023-02-02T09:30:45;101062.72;;;7.53;94.00
36234;BME280;43467;50.890;5.982;2023-02-02T09:33:11;101067.78;;;7.62;94.39
36234;BME280;43467;50.890;5.982;2023-02-02T09:35:36;101081.00;;;7.59;94.65
36234;BME280;43467;50.890;5.982;2023-02-02T09:38:01;101077.50;;;7.60;95.01
36234;BME280;43467;50.890;5.982;2023-02-02T09:40:31;101078.38;;;7.61;95.32
36234;BME280;43467;50.890;5.982;2023-02-02T09:46:04;101085.25;;;7.68;94.51
36234;BME280;43467;50.890;5.982;2023-02-02T09:51:19;101087.72;;;7.75;93.89
36234;BME280;43467;50.890;5.982;2023-02-02T09:56:21;101092.09;;;7.76;93.14
36234;BME280;43467;50.890;5.982;2023-02-02T09:58:52;101106.06;;;7.81;92.79
36234;BME280;43467;50.890;5.982;2023-02-02T10:01:29;101113.81;;;7.87;92.53
36234;BME280;43467;50.890;5.982;2023-02-02T10:04:15;101107.53;;;7.94;92.05
36234;BME280;43467;50.890;5.982;2023-02-02T10:06:44;101106.88;;;7.83;91.57
36234;BME280;43467;50.890;5.982;2023-02-02T10:09:35;101118.34;;;7.82;91.87
36234;BME280;43467;50.890;5.982;2023-02-02T10:18:21;101132.16;;;7.93;90.76
36234;BME280;43467;50.890;5.982;2023-02-02T10:21:10;101144.41;;;7.96;90.44
36234;BME280;43467;50.890;5.982;2023-02-02T10:23:39;101147.69;;;8.07;90.21
36234;BME280;43467;50.890;5.982;2023-02-02T10:26:21;101155.66;;;8.04;89.92
36234;BME280;43467;50.890;5.982;2023-02-02T10:29:07;101167.16;;;8.02;90.06
36234;BME280;43467;50.890;5.982;2023-02-02T10:34:14;101158.44;;;7.98;90.55
36234;BME280;43467;50.890;5.982;2023-02-02T10:39:18;101155.81;;;7.98;90.75
36234;BME280;43467;50.890;5.982;2023-02-02T10:44:38;101147.75;;;8.06;90.86
36234;BME280;43467;50.890;5.982;2023-02-02T10:47:10;101158.22;;;8.09;90.37
36234;BME280;43467;50.890;5.982;2023-02-02T10:49:39;101134.41;;;8.12;90.26
36234;BME280;43467;50.890;5.982;2023-02-02T10:52:21;101148.56;;;8.08;90.03
36234;BME280;43467;50.890;5.982;2023-02-02T10:55:36;101150.22;;;8.13;90.22
36234;BME280;43467;50.890;5.982;2023-02-02T11:02:56;101146.47;;;8.23;88.71
36234;BME280;43467;50.890;5.982;2023-02-02T11:05:26;101127.50;;;8.06;88.95
36234;BME280;43467;50.890;5.982;2023-02-02T11:08:13;101137.75;;;8.20;88.90
36234;BME280;43467;50.890;5.982;2023-02-02T11:10:39;101148.44;;;8.14;88.66
36234;BME280;43467;50.890;5.982;2023-02-02T11:13:06;101156.22;;;8.20;88.56
36234;BME280;43467;50.890;5.982;2023-02-02T11:15:36;101159.78;;;8.17;88.33
36234;BME280;43467;50.890;5.982;2023-02-02T11:18:13;101152.81;;;8.15;88.02
36234;BME280;43467;50.890;5.982;2023-02-02T11:20:40;101146.59;;;8.19;88.08
36234;BME280;43467;50.890;5.982;2023-02-02T11:23:05;101143.72;;;8.28;87.88
36234;BME280;43467;50.890;5.982;2023-02-02T11:25:38;101154.28;;;8.31;87.24
36234;BME280;43467;50.890;5.982;2023-02-02T11:28:31;101135.16;;;8.18;86.76
36234;BME280;43467;50.890;5.982;2023-02-02T11:30:58;101162.19;;;8.31;86.99
36234;BME280;43467;50.890;5.982;2023-02-02T11:33:29;101157.72;;;8.33;86.77
36234;BME280;43467;50.890;5.982;2023-02-02T11:36:18;101155.00;;;8.36;86.45
36234;BME280;43467;50.890;5.982;2023-02-02T11:38:44;101147.84;;;8.43;86.38
36234;BME280;43467;50.890;5.982;2023-02-02T11:41:10;101155.00;;;8.37;86.71
36234;BME280;43467;50.890;5.982;2023-02-02T11:43:50;101139.03;;;8.44;86.07
36234;BME280;43467;50.890;5.982;2023-02-02T11:46:17;101129.28;;;8.47;86.04
36234;BME280;43467;50.890;5.982;2023-02-02T11:48:58;101141.59;;;8.47;85.70
36234;BME280;43467;50.890;5.982;2023-02-02T11:51:26;101146.91;;;8.45;85.37
36234;BME280;43467;50.890;5.982;2023-02-02T11:54:04;101137.22;;;8.46;85.32
36234;BME280;43467;50.890;5.982;2023-02-02T11:56:31;101138.78;;;8.54;85.21
36234;BME280;43467;50.890;5.982;2023-02-02T11:58:57;101123.91;;;8.50;84.63
36234;BME280;43467;50.890;5.982;2023-02-02T12:04:19;101126.06;;;8.71;84.63
36234;BME280;43467;50.890;5.982;2023-02-02T12:06:46;101118.88;;;8.76;84.32
36234;BME280;43467;50.890;5.982;2023-02-02T12:09:18;101121.47;;;8.79;83.74
36234;BME280;43467;50.890;5.982;2023-02-02T12:11:59;101114.34;;;8.81;83.90
36234;BME280;43467;50.890;5.982;2023-02-02T12:39:04;101089.78;;;9.13;81.52
36234;BME280;43467;50.890;5.982;2023-02-02T12:47:24;101094.03;;;9.19;81.01
36234;BME280;43467;50.890;5.982;2023-02-02T12:50:18;101092.56;;;9.09;81.26
36234;BME280;43467;50.890;5.982;2023-02-02T12:55:27;101089.63;;;9.19;81.18
36234;BME280;43467;50.890;5.982;2023-02-02T12:58:17;101084.56;;;9.10;81.24
36234;BME280;43467;50.890;5.982;2023-02-02T13:01:01;101086.91;;;9.22;81.26
36234;BME280;43467;50.890;5.982;2023-02-02T13:09:13;101075.50;;;9.20;80.98
36234;BME280;43467;50.890;5.982;2023-02-02T13:11:51;101075.66;;;9.14;80.63
36234;BME280;43467;50.890;5.982;2023-02-02T13:14:25;101057.81;;;9.22;80.67
36234;BME280;43467;50.890;5.982;2023-02-02T13:17:13;101058.38;;;9.35;80.52
36234;BME280;43467;50.890;5.982;2023-02-02T13:19:48;101067.50;;;9.54;80.05
36234;BME280;43467;50.890;5.982;2023-02-02T13:22:24;101049.84;;;9.56;79.53
36234;BME280;43467;50.890;5.982;2023-02-02T13:24:53;101073.97;;;9.75;79.35
36234;BME280;43467;50.890;5.982;2023-02-02T13:27:20;101089.47;;;9.87;78.72
36234;BME280;43467;50.890;5.982;2023-02-02T13:32:33;101077.22;;;10.14;77.77
36234;BME280;43467;50.890;5.982;2023-02-02T13:35:35;101074.75;;;10.08;76.19
36234;BME280;43467;50.890;5.982;2023-02-02T13:38:15;101078.63;;;9.96;76.14
36234;BME280;43467;50.890;5.982;2023-02-02T13:40:42;101060.75;;;10.04;77.09
36234;BME280;43467;50.890;5.982;2023-02-02T13:49:00;101076.63;;;10.04;77.02
36234;BME280;43467;50.890;5.982;2023-02-02T13:51:45;101076.63;;;10.04;76.44
36234;BME280;43467;50.890;5.982;2023-02-02T14:00:03;101085.03;;;9.89;76.12
36234;BME280;43467;50.890;5.982;2023-02-02T14:02:45;101078.00;;;9.88;76.15
36234;BME280;43467;50.890;5.982;2023-02-02T14:05:25;101079.75;;;9.88;76.08
36234;BME280;43467;50.890;5.982;2023-02-02T14:08:04;101072.94;;;9.80;75.81
36234;BME280;43467;50.890;5.982;2023-02-02T14:10:34;101059.44;;;9.90;75.72
36234;BME280;43467;50.890;5.982;2023-02-02T14:15:56;101068.66;;;9.75;75.76
36234;BME280;43467;50.890;5.982;2023-02-02T14:26:54;101081.50;;;9.89;76.09
36234;BME280;43467;50.890;5.982;2023-02-02T14:34:30;101072.56;;;9.93;75.55
36234;BME280;43467;50.890;5.982;2023-02-02T14:45:42;101086.25;;;9.77;75.21
36234;BME280;43467;50.890;5.982;2023-02-02T14:48:18;101090.69;;;9.75;75.20
36234;BME280;43467;50.890;5.982;2023-02-02T14:50:52;101096.06;;;9.74;76.09
36234;BME280;43467;50.890;5.982;2023-02-02T14:55:51;101086.28;;;9.76;76.15
36234;BME280;43467;50.890;5.982;2023-02-02T15:06:42;101112.72;;;9.76;76.52
36234;BME280;43467;50.890;5.982;2023-02-02T15:20:23;101126.16;;;9.68;76.93
36234;BME280;43467;50.890;5.982;2023-02-02T15:22:59;101127.84;;;9.71;77.17
36234;BME280;43467;50.890;5.982;2023-02-02T15:25:31;101125.59;;;9.57;77.27
36234;BME280;43467;50.890;5.982;2023-02-02T15:30:44;101132.44;;;9.64;77.17
36234;BME280;43467;50.890;5.982;2023-02-02T15:33:23;101136.78;;;9.67;77.03
36234;BME280;43467;50.890;5.982;2023-02-02T15:35:52;101129.72;;;9.67;77.04
36234;BME280;43467;50.890;5.982;2023-02-02T15:38:19;101122.31;;;9.49;77.15